createdAt,value
2018-11-07T00:00:24.435Z,19.24
2018-11-07T00:02:52.940Z,19.14
2018-11-07T00:05:21.421Z,19.14
2018-11-07T00:07:49.964Z,18.99
2018-11-07T00:10:18.407Z,19.17
2018-11-07T00:12:46.903Z,18.91
2018-11-07T00:15:16.229Z,18.76
2018-11-07T00:17:44.678Z,18.70
2018-11-07T00:20:13.619Z,18.84
2018-11-07T00:22:42.091Z,18.86
2018-11-07T00:25:11.747Z,18.92
2018-11-07T00:27:41.053Z,19.09
2018-11-07T00:30:11.283Z,18.69
2018-11-07T00:32:40.171Z,19.05
2018-11-07T00:35:10.023Z,18.84
2018-11-07T00:38:08.969Z,18.91
2018-11-07T00:40:37.454Z,18.60
2018-11-07T00:43:06.273Z,18.52
2018-11-07T00:45:34.824Z,18.18
2018-11-07T00:48:03.625Z,20.62
2018-11-07T00:50:32.075Z,19.23
2018-11-07T00:53:00.561Z,18.52
2018-11-07T00:55:28.985Z,18.79
2018-11-07T00:57:57.464Z,18.58
2018-11-07T01:00:25.928Z,18.72
2018-11-07T01:02:54.515Z,18.34
2018-11-07T01:05:22.957Z,18.50
2018-11-07T01:07:51.452Z,18.68
2018-11-07T01:10:19.983Z,18.58
2018-11-07T01:12:48.477Z,18.58
2018-11-07T01:15:17.007Z,18.46
2018-11-07T01:17:45.459Z,18.37
2018-11-07T01:20:14.980Z,18.49
2018-11-07T01:22:44.315Z,18.30
2018-11-07T01:25:12.833Z,18.21
2018-11-07T01:27:41.549Z,18.36
2018-11-07T01:30:12.061Z,18.15
2018-11-07T01:32:40.701Z,18.14
2018-11-07T01:35:09.464Z,17.82
2018-11-07T01:37:38.099Z,18.07
2018-11-07T01:40:09.117Z,18.03
2018-11-07T01:42:37.578Z,18.06
2018-11-07T01:45:07.232Z,18.08
2018-11-07T01:47:35.973Z,18.01
2018-11-07T01:50:05.205Z,18.23
2018-11-07T01:52:33.684Z,17.86
2018-11-07T01:55:02.165Z,18.36
2018-11-07T01:57:30.669Z,18.15
2018-11-07T02:00:29.569Z,18.19
2018-11-07T02:02:58.055Z,18.42
2018-11-07T02:05:26.550Z,18.65
2018-11-07T02:07:55.055Z,18.07
2018-11-07T02:10:23.596Z,17.31
2018-11-07T02:12:52.063Z,17.41
2018-11-07T02:15:20.984Z,17.61
2018-11-07T02:17:49.476Z,17.20
2018-11-07T02:20:17.968Z,17.04
2018-11-07T02:22:46.444Z,17.07
2018-11-07T02:25:14.929Z,17.00
2018-11-07T02:27:43.430Z,17.44
2018-11-07T02:30:14.327Z,17.60
2018-11-07T02:32:42.867Z,17.33
2018-11-07T02:35:11.370Z,16.65
2018-11-07T02:37:39.905Z,16.43
2018-11-07T02:40:09.208Z,16.43
2018-11-07T02:42:37.883Z,16.48
2018-11-07T02:45:06.654Z,15.73
2018-11-07T02:47:41.276Z,15.16
2018-11-07T02:50:10.470Z,14.90
2018-11-07T02:52:38.939Z,15.21
2018-11-07T02:55:07.675Z,15.07
2018-11-07T02:57:36.274Z,14.96
2018-11-07T03:00:06.344Z,14.84
2018-11-07T03:02:34.812Z,14.91
2018-11-07T03:05:03.327Z,15.24
2018-11-07T03:07:31.768Z,15.51
2018-11-07T03:10:00.263Z,15.52
2018-11-07T03:12:29.488Z,15.33
2018-11-07T03:14:57.924Z,15.29
2018-11-07T03:17:26.396Z,15.64
2018-11-07T03:19:54.872Z,15.44
2018-11-07T03:22:23.356Z,15.73
2018-11-07T03:24:51.836Z,15.51
2018-11-07T03:27:20.371Z,15.51
2018-11-07T03:29:48.833Z,15.29
2018-11-07T03:32:17.421Z,15.36
2018-11-07T03:34:45.923Z,15.39
2018-11-07T03:37:14.411Z,14.97
2018-11-07T03:39:43.053Z,14.75
2018-11-07T03:42:11.504Z,14.31
2018-11-07T03:44:39.993Z,13.73
2018-11-07T03:47:08.580Z,14.09
2018-11-07T03:49:37.116Z,14.59
2018-11-07T03:52:05.570Z,14.78
2018-11-07T03:54:34.429Z,14.92
2018-11-07T03:57:02.949Z,14.25
2018-11-07T03:59:31.541Z,14.89
2018-11-07T04:01:59.994Z,14.69
2018-11-07T04:04:28.480Z,14.93
2018-11-07T04:06:56.961Z,15.06
2018-11-07T04:09:25.390Z,15.12
2018-11-07T04:11:53.851Z,14.94
2018-11-07T04:14:22.335Z,14.14
2018-11-07T04:16:51.467Z,13.64
2018-11-07T04:19:19.932Z,13.57
2018-11-07T04:21:48.471Z,13.56
2018-11-07T04:24:16.946Z,14.38
2018-11-07T04:26:45.460Z,14.41
2018-11-07T04:29:13.932Z,14.11
2018-11-07T04:31:42.668Z,13.80
2018-11-07T04:34:11.135Z,14.05
2018-11-07T04:36:39.644Z,13.74
2018-11-07T04:39:09.643Z,13.41
2018-11-07T04:41:38.115Z,13.25
2018-11-07T04:44:06.787Z,13.58
2018-11-07T04:46:35.271Z,13.77
2018-11-07T04:49:04.030Z,14.03
2018-11-07T04:51:32.655Z,14.17
2018-11-07T04:54:01.157Z,13.37
2018-11-07T04:56:29.655Z,14.00
2018-11-07T04:58:58.136Z,13.82
2018-11-07T05:01:26.668Z,14.15
2018-11-07T05:03:55.139Z,14.31
2018-11-07T05:06:23.716Z,14.26
2018-11-07T05:08:52.224Z,14.12
2018-11-07T05:11:20.915Z,13.64
2018-11-07T05:13:49.420Z,13.48
2018-11-07T05:16:17.936Z,13.80
2018-11-07T05:18:46.428Z,14.03
2018-11-07T05:21:15.076Z,13.97
2018-11-07T05:23:43.541Z,13.62
2018-11-07T05:26:12.183Z,14.00
2018-11-07T05:28:40.625Z,13.82
2018-11-07T05:31:09.106Z,13.83
2018-11-07T05:33:37.589Z,14.03
2018-11-07T05:36:06.984Z,13.84
2018-11-07T05:38:35.475Z,13.47
2018-11-07T05:41:03.977Z,13.47
2018-11-07T05:43:32.429Z,13.80
2018-11-07T05:46:00.900Z,13.64
2018-11-07T05:48:29.383Z,13.81
2018-11-07T05:50:58.111Z,13.89
2018-11-07T05:53:26.627Z,13.67
2018-11-07T05:55:55.306Z,13.79
2018-11-07T05:58:24.280Z,13.78
2018-11-07T06:00:52.845Z,13.58
2018-11-07T06:03:21.345Z,12.99
2018-11-07T06:05:49.887Z,13.41
2018-11-07T06:08:18.370Z,13.13
2018-11-07T06:10:46.846Z,13.25
2018-11-07T06:13:15.482Z,13.03
2018-11-07T06:15:43.964Z,13.24
2018-11-07T06:18:12.689Z,13.81
2018-11-07T06:20:41.168Z,13.96
2018-11-07T06:23:09.696Z,14.04
2018-11-07T06:25:38.511Z,14.11
2018-11-07T06:28:07.064Z,14.15
2018-11-07T06:30:35.721Z,14.43
2018-11-07T06:33:04.204Z,14.49
2018-11-07T06:35:32.716Z,13.87
2018-11-07T06:38:01.348Z,14.42
2018-11-07T06:40:29.836Z,13.94
2018-11-07T06:42:58.320Z,13.65
2018-11-07T06:45:26.821Z,14.03
2018-11-07T06:47:55.404Z,14.30
2018-11-07T06:50:23.893Z,14.44
2018-11-07T06:52:52.411Z,14.69
2018-11-07T06:55:20.931Z,14.43
2018-11-07T06:57:49.419Z,14.47
2018-11-07T07:00:18.448Z,14.54
2018-11-07T07:02:47.940Z,14.63
2018-11-07T07:05:16.739Z,14.64
2018-11-07T07:07:45.284Z,14.89
2018-11-07T07:10:15.214Z,15.19
2018-11-07T07:12:43.707Z,15.06
2018-11-07T07:15:13.829Z,15.63
2018-11-07T07:17:42.457Z,15.27
2018-11-07T07:20:13.688Z,15.30
2018-11-07T07:22:42.918Z,15.64
2018-11-07T07:25:12.423Z,16.06
2018-11-07T07:27:41.654Z,15.75
2018-11-07T07:30:12.850Z,15.64
2018-11-07T07:32:42.148Z,15.45
2018-11-07T07:35:10.785Z,15.56
2018-11-07T07:37:39.531Z,16.01
2018-11-07T07:40:09.603Z,16.50
2018-11-07T07:42:38.834Z,15.70
2018-11-07T07:45:09.415Z,16.23
2018-11-07T07:47:38.212Z,16.34
2018-11-07T07:50:08.278Z,16.42
2018-11-07T07:52:36.748Z,16.66
2018-11-07T07:55:05.588Z,16.64
2018-11-07T07:57:34.059Z,16.30
2018-11-07T08:00:02.573Z,16.61
2018-11-07T08:02:31.124Z,16.48
2018-11-07T08:04:59.612Z,17.01
2018-11-07T08:07:28.125Z,17.47
2018-11-07T08:09:56.614Z,16.53
2018-11-07T08:12:25.136Z,17.38
2018-11-07T08:14:53.615Z,18.02
2018-11-07T08:17:22.120Z,17.36
2018-11-07T08:19:50.699Z,17.81
2018-11-07T08:22:19.236Z,17.63
2018-11-07T08:24:47.691Z,17.96
2018-11-07T08:27:16.126Z,18.11
2018-11-07T08:29:44.592Z,18.85
2018-11-07T08:32:13.083Z,18.49
2018-11-07T08:34:41.596Z,18.35
2018-11-07T08:37:10.122Z,18.55
2018-11-07T08:39:38.588Z,18.18
2018-11-07T08:42:07.119Z,18.66
2018-11-07T08:44:35.551Z,18.85
2018-11-07T08:47:04.020Z,19.08
2018-11-07T08:49:32.496Z,19.53
2018-11-07T08:52:00.936Z,19.56
2018-11-07T08:54:29.424Z,19.37
2018-11-07T08:56:58.296Z,19.18
2018-11-07T08:59:26.852Z,19.16
2018-11-07T09:01:55.329Z,19.57
2018-11-07T09:04:23.817Z,19.67
2018-11-07T09:06:52.293Z,19.62
2018-11-07T09:09:20.875Z,19.85
2018-11-07T09:11:49.427Z,19.83
2018-11-07T09:14:17.921Z,20.01
2018-11-07T09:16:46.417Z,20.25
2018-11-07T09:19:15.173Z,20.05
2018-11-07T09:21:43.760Z,20.30
2018-11-07T09:24:12.887Z,20.04
2018-11-07T09:26:42.051Z,20.79
2018-11-07T09:29:10.585Z,19.95
2018-11-07T09:31:39.199Z,20.16
2018-11-07T09:34:07.684Z,20.38
2018-11-07T09:36:36.144Z,20.69
2018-11-07T09:39:07.007Z,21.01
2018-11-07T09:41:35.506Z,20.72
2018-11-07T09:44:04.351Z,20.18
2018-11-07T09:46:33.539Z,21.14
2018-11-07T09:49:02.043Z,21.93
2018-11-07T09:51:31.163Z,21.68
2018-11-07T09:54:00.485Z,22.06
2018-11-07T09:56:28.871Z,21.73
2018-11-07T09:58:57.393Z,21.83
2018-11-07T10:01:26.365Z,22.77
2018-11-07T10:03:55.089Z,22.31
2018-11-07T10:06:23.644Z,22.53
2018-11-07T10:08:52.089Z,22.58
2018-11-07T10:11:20.605Z,22.27
2018-11-07T10:13:49.104Z,22.60
2018-11-07T10:16:17.653Z,23.27
2018-11-07T10:18:46.119Z,22.29
2018-11-07T10:21:14.631Z,22.64
2018-11-07T10:23:43.160Z,22.77
2018-11-07T10:26:11.669Z,24.04
2018-11-07T10:28:40.358Z,23.77
2018-11-07T10:31:08.832Z,23.92
2018-11-07T10:33:37.564Z,22.84
2018-11-07T10:36:06.026Z,23.97
2018-11-07T10:38:34.767Z,24.20
2018-11-07T10:41:03.145Z,23.88
2018-11-07T10:43:31.687Z,24.26
2018-11-07T10:46:00.217Z,24.94
2018-11-07T10:48:28.669Z,25.51
2018-11-07T10:50:57.137Z,25.78
2018-11-07T10:53:25.608Z,26.80
2018-11-07T10:55:54.131Z,27.17
2018-11-07T10:58:22.679Z,27.28
2018-11-07T11:00:56.474Z,26.32
2018-11-07T11:03:30.339Z,27.95
2018-11-07T11:05:59.032Z,27.12
2018-11-07T11:08:27.780Z,27.71
2018-11-07T11:10:56.260Z,26.35
2018-11-07T11:13:25.911Z,26.50
2018-11-07T11:15:54.376Z,27.34
2018-11-07T11:18:22.843Z,27.17
2018-11-07T11:20:51.364Z,27.52
2018-11-07T11:23:19.916Z,27.95
2018-11-07T11:25:48.436Z,26.94
2018-11-07T11:28:16.898Z,27.53
2018-11-07T11:30:45.664Z,28.68
2018-11-07T11:33:14.804Z,27.02
2018-11-07T11:35:43.287Z,27.05
2018-11-07T11:38:11.774Z,28.31
2018-11-07T11:40:40.263Z,28.94
2018-11-07T11:43:09.015Z,29.65
2018-11-07T11:45:37.530Z,28.86
2018-11-07T11:48:06.356Z,29.04
2018-11-07T11:50:34.836Z,27.35
2018-11-07T11:53:03.348Z,28.40
2018-11-07T11:55:31.840Z,27.26
2018-11-07T11:58:00.326Z,27.99
2018-11-07T12:00:29.010Z,27.74
2018-11-07T12:02:57.738Z,28.07
2018-11-07T12:05:26.401Z,27.69
2018-11-07T12:07:54.875Z,28.46
2018-11-07T12:10:24.841Z,27.88
2018-11-07T12:12:54.656Z,27.57
2018-11-07T12:15:24.487Z,28.22
2018-11-07T12:17:53.642Z,28.31
2018-11-07T12:20:22.630Z,27.90
2018-11-07T12:22:51.686Z,29.58
2018-11-07T12:25:21.064Z,28.81
2018-11-07T12:27:49.571Z,29.03
2018-11-07T12:30:20.822Z,28.24
2018-11-07T12:32:50.303Z,30.26
2018-11-07T12:35:19.272Z,29.88
2018-11-07T12:37:48.159Z,28.44
2018-11-07T12:40:17.180Z,29.63
2018-11-07T12:42:46.265Z,28.35
2018-11-07T12:45:15.789Z,29.67
2018-11-07T12:47:44.320Z,29.79
2018-11-07T12:50:15.233Z,28.56
2018-11-07T12:52:44.657Z,28.76
2018-11-07T12:55:13.624Z,29.34
2018-11-07T12:57:42.545Z,29.68
2018-11-07T13:00:14.575Z,29.91
2018-11-07T13:02:43.132Z,28.83
2018-11-07T13:05:13.316Z,27.18
2018-11-07T13:07:42.594Z,26.00
2018-11-07T13:10:14.235Z,27.84
2018-11-07T13:12:43.888Z,27.70
2018-11-07T13:15:12.983Z,27.54
2018-11-07T13:17:41.721Z,27.20
2018-11-07T13:20:13.364Z,27.55
2018-11-07T13:22:42.709Z,28.78
2018-11-07T13:25:12.340Z,28.81
2018-11-07T13:27:41.020Z,28.31
2018-11-07T13:30:12.084Z,27.43
2018-11-07T13:32:41.143Z,28.40
2018-11-07T13:35:10.759Z,28.53
2018-11-07T13:37:40.409Z,28.11
2018-11-07T13:40:12.437Z,27.39
2018-11-07T13:42:41.475Z,26.80
2018-11-07T13:45:12.112Z,26.18
2018-11-07T13:47:41.789Z,27.77
2018-11-07T13:50:11.189Z,27.76
2018-11-07T13:52:40.218Z,29.17
2018-11-07T13:55:10.119Z,28.43
2018-11-07T13:57:39.423Z,27.37
2018-11-07T14:00:13.232Z,28.71
2018-11-07T14:02:41.828Z,27.98
2018-11-07T14:05:11.331Z,27.29
2018-11-07T14:07:40.231Z,26.21
2018-11-07T14:10:11.771Z,26.66
2018-11-07T14:12:41.009Z,25.39
2018-11-07T14:15:12.447Z,25.64
2018-11-07T14:17:41.576Z,26.42
2018-11-07T14:20:10.392Z,26.52
2018-11-07T14:22:39.511Z,26.17
2018-11-07T14:25:09.238Z,26.80
2018-11-07T14:27:38.217Z,26.07
2018-11-07T14:30:11.131Z,26.18
2018-11-07T14:32:45.746Z,25.05
2018-11-07T14:35:14.645Z,24.88
2018-11-07T14:37:43.356Z,24.92
2018-11-07T14:40:11.966Z,24.30
2018-11-07T14:42:40.739Z,24.44
2018-11-07T14:45:10.882Z,24.70
2018-11-07T14:47:39.931Z,24.32
2018-11-07T14:50:09.516Z,24.18
2018-11-07T14:52:38.539Z,24.66
2018-11-07T14:55:09.004Z,24.34
2018-11-07T14:57:37.813Z,24.41
2018-11-07T15:00:12.452Z,24.50
2018-11-07T15:02:42.339Z,23.94
2018-11-07T15:05:12.255Z,23.47
2018-11-07T15:07:41.373Z,23.45
2018-11-07T15:10:11.024Z,22.78
2018-11-07T15:12:39.709Z,23.05
2018-11-07T15:15:10.242Z,23.08
2018-11-07T15:17:38.688Z,22.86
2018-11-07T15:20:08.278Z,22.87
2018-11-07T15:22:36.818Z,22.87
2018-11-07T15:25:06.059Z,22.87
2018-11-07T15:27:34.739Z,22.59
2018-11-07T15:30:03.488Z,22.52
2018-11-07T15:32:31.980Z,22.59
2018-11-07T15:35:00.437Z,22.48
2018-11-07T15:37:28.965Z,22.21
2018-11-07T15:39:58.453Z,22.29
2018-11-07T15:42:26.992Z,21.81
2018-11-07T15:44:55.460Z,21.54
2018-11-07T15:47:23.996Z,21.26
2018-11-07T15:49:57.638Z,21.18
2018-11-07T15:52:26.177Z,21.23
2018-11-07T15:54:54.635Z,21.49
2018-11-07T15:57:23.120Z,21.37
2018-11-07T15:59:51.616Z,21.13
2018-11-07T16:02:20.207Z,21.16
2018-11-07T16:04:48.675Z,21.27
2018-11-07T16:07:17.269Z,21.29
2018-11-07T16:09:45.741Z,21.19
2018-11-07T16:12:14.204Z,21.27
2018-11-07T16:14:42.672Z,21.19
2018-11-07T16:17:11.164Z,21.25
2018-11-07T16:19:40.016Z,21.18
2018-11-07T16:22:08.609Z,21.04
2018-11-07T16:24:37.080Z,20.79
2018-11-07T16:27:06.108Z,20.76
2018-11-07T16:29:34.573Z,20.72
2018-11-07T16:32:03.176Z,20.69
2018-11-07T16:34:31.637Z,20.81
2018-11-07T16:37:00.179Z,20.74
2018-11-07T16:39:28.630Z,20.58
2018-11-07T16:42:03.465Z,20.68
2018-11-07T16:44:32.032Z,20.73
2018-11-07T16:47:00.510Z,20.66
2018-11-07T16:49:29.003Z,20.60
2018-11-07T16:51:57.486Z,20.33
2018-11-07T16:54:25.994Z,20.28
2018-11-07T16:56:54.467Z,20.30
2018-11-07T16:59:22.943Z,20.00
2018-11-07T17:01:51.468Z,20.08
2018-11-07T17:04:20.234Z,20.15
2018-11-07T17:06:48.762Z,20.18
2018-11-07T17:09:17.247Z,20.05
2018-11-07T17:11:45.731Z,20.17
2018-11-07T17:14:14.513Z,20.08
2018-11-07T17:16:43.026Z,19.95
2018-11-07T17:19:12.029Z,19.33
2018-11-07T17:21:40.821Z,19.76
2018-11-07T17:24:09.391Z,20.09
2018-11-07T17:26:37.869Z,20.09
2018-11-07T17:29:06.475Z,19.93
2018-11-07T17:31:34.955Z,19.95
2018-11-07T17:34:03.804Z,19.96
2018-11-07T17:36:32.515Z,20.16
2018-11-07T17:39:01.021Z,19.68
2018-11-07T17:41:29.508Z,20.06
2018-11-07T17:43:58.105Z,19.94
2018-11-07T17:46:26.596Z,19.21
2018-11-07T17:48:55.089Z,19.33
2018-11-07T17:51:23.597Z,19.48
2018-11-07T17:53:52.135Z,19.06
2018-11-07T17:56:20.920Z,19.17
2018-11-07T17:58:49.614Z,19.28
2018-11-07T18:01:18.384Z,19.31
2018-11-07T18:03:46.880Z,19.29
2018-11-07T18:06:15.435Z,19.34
2018-11-07T18:08:44.127Z,19.54
2018-11-07T18:11:12.930Z,19.63
2018-11-07T18:13:42.241Z,19.39
2018-11-07T18:16:10.802Z,19.38
2018-11-07T18:18:40.286Z,19.44
2018-11-07T18:21:08.911Z,19.16
2018-11-07T18:23:37.774Z,19.11
2018-11-07T18:26:06.616Z,19.02
2018-11-07T18:28:35.387Z,19.11
2018-11-07T18:31:04.372Z,19.09
2018-11-07T18:33:32.960Z,19.16
2018-11-07T18:36:01.765Z,18.56
2018-11-07T18:38:30.383Z,18.56
2018-11-07T18:40:59.641Z,18.64
2018-11-07T18:43:28.157Z,18.18
2018-11-07T18:45:56.663Z,18.34
2018-11-07T18:48:25.411Z,18.20
2018-11-07T18:50:54.235Z,18.52
2018-11-07T18:53:22.693Z,18.44
2018-11-07T18:55:51.207Z,18.72
2018-11-07T18:58:19.707Z,18.43
2018-11-07T19:00:48.714Z,18.72
2018-11-07T19:03:17.227Z,18.67
2018-11-07T19:05:45.818Z,18.41
2018-11-07T19:08:14.678Z,18.45
2018-11-07T19:10:43.954Z,18.62
2018-11-07T19:13:12.468Z,18.42
2018-11-07T19:15:40.959Z,18.34
2018-11-07T19:18:10.402Z,18.66
2018-11-07T19:20:38.962Z,18.57
2018-11-07T19:23:07.405Z,18.27
2018-11-07T19:25:35.878Z,18.32
2018-11-07T19:28:04.877Z,18.25
2018-11-07T19:30:33.360Z,17.93
2018-11-07T19:33:02.227Z,18.14
2018-11-07T19:35:30.933Z,18.23
2018-11-07T19:37:59.625Z,18.03
2018-11-07T19:40:28.468Z,17.61
2018-11-07T19:42:56.912Z,17.18
2018-11-07T19:45:25.401Z,17.82
2018-11-07T19:47:53.947Z,17.78
2018-11-07T19:50:23.523Z,17.86
2018-11-07T19:52:52.847Z,17.54
2018-11-07T19:55:23.100Z,17.69
2018-11-07T19:57:54.430Z,17.85
2018-11-07T20:00:23.225Z,16.76
2018-11-07T20:02:51.896Z,16.88
2018-11-07T20:05:20.647Z,17.41
2018-11-07T20:07:49.170Z,17.38
2018-11-07T20:10:19.528Z,17.17
2018-11-07T20:12:48.495Z,17.18
2018-11-07T20:15:18.487Z,17.32
2018-11-07T20:17:47.204Z,17.16
2018-11-07T20:20:16.087Z,17.24
2018-11-07T20:22:44.812Z,17.29
2018-11-07T20:25:14.049Z,17.24
2018-11-07T20:27:43.263Z,17.13
2018-11-07T20:30:13.649Z,16.89
2018-11-07T20:32:42.848Z,17.10
2018-11-07T20:35:12.936Z,16.97
2018-11-07T20:37:41.959Z,17.25
2018-11-07T20:40:13.685Z,17.08
2018-11-07T20:42:42.420Z,16.87
2018-11-07T20:45:12.004Z,16.69
2018-11-07T20:47:40.729Z,16.96
2018-11-07T20:50:12.135Z,16.44
2018-11-07T20:52:41.128Z,16.47
2018-11-07T20:55:10.392Z,16.84
2018-11-07T20:57:38.928Z,16.57
2018-11-07T21:00:11.889Z,16.52
2018-11-07T21:02:40.893Z,16.37
2018-11-07T21:05:09.783Z,16.14
2018-11-07T21:07:39.627Z,16.64
2018-11-07T21:10:13.021Z,16.96
2018-11-07T21:12:42.216Z,16.35
2018-11-07T21:15:11.886Z,16.28
2018-11-07T21:17:41.507Z,16.71
2018-11-07T21:20:40.629Z,16.68
2018-11-07T21:23:09.132Z,16.52
2018-11-07T21:25:37.615Z,16.01
2018-11-07T21:28:06.143Z,15.78
2018-11-07T21:30:34.814Z,16.07
2018-11-07T21:33:03.252Z,16.00
2018-11-07T21:35:31.709Z,15.86
2018-11-07T21:38:00.180Z,15.93
2018-11-07T21:40:28.676Z,16.42
2018-11-07T21:42:57.215Z,16.54
2018-11-07T21:45:25.743Z,16.33
2018-11-07T21:47:54.230Z,16.06
2018-11-07T21:50:22.745Z,15.52
2018-11-07T21:52:51.259Z,15.62
2018-11-07T21:55:19.747Z,15.57
2018-11-07T21:57:48.775Z,16.14
2018-11-07T22:00:18.615Z,16.11
2018-11-07T22:02:47.325Z,16.01
2018-11-07T22:05:17.021Z,15.89
2018-11-07T22:07:46.728Z,15.94
2018-11-07T22:10:16.786Z,15.97
2018-11-07T22:12:45.611Z,16.07
2018-11-07T22:15:14.139Z,15.61
2018-11-07T22:17:42.591Z,15.83
2018-11-07T22:20:14.132Z,15.97
2018-11-07T22:22:42.958Z,16.12
2018-11-07T22:25:11.771Z,15.70
2018-11-07T22:27:40.235Z,16.04
2018-11-07T22:30:10.757Z,15.72
2018-11-07T22:32:39.982Z,15.85
2018-11-07T22:35:10.149Z,15.93
2018-11-07T22:37:38.673Z,15.77
2018-11-07T22:40:09.040Z,15.29
2018-11-07T22:42:37.548Z,15.27
2018-11-07T22:45:06.755Z,15.21
2018-11-07T22:47:35.784Z,15.22
2018-11-07T22:50:04.484Z,14.96
2018-11-07T22:52:32.981Z,14.74
2018-11-07T22:55:01.496Z,14.17
2018-11-07T22:57:30.017Z,14.43
2018-11-07T22:59:58.690Z,14.61
2018-11-07T23:02:27.194Z,14.72
2018-11-07T23:05:58.249Z,14.35
2018-11-07T23:08:27.000Z,14.33
2018-11-07T23:10:55.474Z,14.38
2018-11-07T23:13:24.396Z,14.31
2018-11-07T23:15:52.911Z,14.83
2018-11-07T23:18:21.696Z,15.21
2018-11-07T23:20:50.157Z,14.65
2018-11-07T23:23:18.621Z,15.06
2018-11-07T23:25:47.534Z,14.78
2018-11-07T23:28:16.036Z,14.64
2018-11-07T23:30:44.640Z,15.23
2018-11-07T23:33:13.104Z,15.45
2018-11-07T23:35:41.597Z,14.39
2018-11-07T23:38:10.074Z,15.04
2018-11-07T23:40:38.573Z,15.38
2018-11-07T23:43:07.061Z,15.23
2018-11-07T23:45:35.572Z,14.34
2018-11-07T23:48:04.041Z,14.01
2018-11-07T23:50:32.535Z,13.74
2018-11-07T23:53:01.033Z,14.04
2018-11-07T23:55:29.504Z,14.12
2018-11-07T23:57:58.220Z,14.02
